createdAt,value
2023-02-21T00:01:56.377Z,43.33
2023-02-21T00:04:41.884Z,40.95
2023-02-21T00:07:27.136Z,48.75
2023-02-21T00:10:12.375Z,45.53
2023-02-21T00:12:57.949Z,41.90
2023-02-21T00:15:43.278Z,41.83
2023-02-21T00:18:28.804Z,49.97
2023-02-21T00:21:14.489Z,50.83
2023-02-21T00:23:59.949Z,41.72
2023-02-21T00:26:45.412Z,44.80
2023-02-21T00:29:30.990Z,45.53
2023-02-21T00:32:16.280Z,43.97
2023-02-21T00:35:02.788Z,42.35
2023-02-21T00:37:48.141Z,44.55
2023-02-21T00:40:34.591Z,39.58
2023-02-21T00:43:20.601Z,41.55
2023-02-21T00:46:05.882Z,44.83
2023-02-21T00:48:51.179Z,43.08
2023-02-21T00:51:36.214Z,40.00
2023-02-21T00:54:22.106Z,43.10
2023-02-21T00:57:07.311Z,42.67
2023-02-21T00:59:52.414Z,39.45
2023-02-21T01:02:37.657Z,46.58
2023-02-21T01:05:23.242Z,44.85
2023-02-21T01:08:08.328Z,44.15
2023-02-21T01:10:53.913Z,40.75
2023-02-21T01:13:38.993Z,39.75
2023-02-21T01:16:26.552Z,41.88
2023-02-21T01:19:11.729Z,42.50
2023-02-21T01:21:56.995Z,45.38
2023-02-21T01:24:42.212Z,43.75
2023-02-21T01:27:27.708Z,40.65
2023-02-21T01:30:13.234Z,45.80
2023-02-21T01:32:58.637Z,45.05
2023-02-21T01:35:45.207Z,46.65
2023-02-21T01:38:30.648Z,41.78
2023-02-21T01:41:17.612Z,45.22
2023-02-21T01:45:01.226Z,42.67
2023-02-21T01:47:47.442Z,40.03
2023-02-21T01:50:44.415Z,42.67
2023-02-21T01:53:37.273Z,45.45
2023-02-21T01:56:24.477Z,39.72
2023-02-21T01:59:12.776Z,41.63
2023-02-21T02:02:16.955Z,45.75
2023-02-21T02:05:03.642Z,46.33
2023-02-21T02:07:51.041Z,44.33
2023-02-21T02:10:36.730Z,41.03
2023-02-21T02:13:35.207Z,48.90
2023-02-21T02:16:36.056Z,44.30
2023-02-21T02:19:34.079Z,45.90
2023-02-21T02:22:42.107Z,42.58
2023-02-21T02:25:21.256Z,47.58
2023-02-21T02:28:17.167Z,42.90
2023-02-21T02:31:12.109Z,45.45
2023-02-21T02:34:03.115Z,44.08
2023-02-21T02:37:01.659Z,45.67
2023-02-21T02:39:29.104Z,43.40
2023-02-21T02:42:23.200Z,36.28
2023-02-21T02:44:56.943Z,38.97
2023-02-21T02:47:29.091Z,42.30
2023-02-21T02:49:58.265Z,39.13
2023-02-21T02:52:26.062Z,39.10
2023-02-21T02:55:05.616Z,40.17
2023-02-21T02:57:41.042Z,37.65
2023-02-21T03:00:10.641Z,38.80
2023-02-21T03:02:45.874Z,37.60
2023-02-21T03:05:22.708Z,34.15
2023-02-21T03:08:09.189Z,38.17
2023-02-21T03:10:45.806Z,36.38
2023-02-21T03:13:34.328Z,36.97
2023-02-21T03:16:11.408Z,38.83
2023-02-21T03:19:00.845Z,40.78
2023-02-21T03:21:50.677Z,37.25
2023-02-21T03:24:19.939Z,36.95
2023-02-21T03:26:49.551Z,38.05
2023-02-21T03:29:43.311Z,36.97
2023-02-21T03:32:45.913Z,44.35
2023-02-21T03:35:13.781Z,36.42
2023-02-21T03:37:45.033Z,38.05
2023-02-21T03:40:17.073Z,40.55
2023-02-21T03:42:47.742Z,36.78
2023-02-21T03:45:17.709Z,40.28
2023-02-21T03:47:51.739Z,40.20
2023-02-21T03:50:19.057Z,42.35
2023-02-21T03:52:46.467Z,42.33
2023-02-21T03:55:16.677Z,38.95
2023-02-21T03:57:43.745Z,36.20
2023-02-21T04:00:12.472Z,38.70
2023-02-21T04:02:42.624Z,41.60
2023-02-21T04:05:13.309Z,40.15
2023-02-21T04:07:40.376Z,45.58
2023-02-21T04:10:07.352Z,37.95
2023-02-21T04:12:40.183Z,39.80
2023-02-21T04:15:07.539Z,41.15
2023-02-21T04:17:34.747Z,42.03
2023-02-21T04:20:03.856Z,35.53
2023-02-21T04:22:33.869Z,40.40
2023-02-21T04:25:01.163Z,41.28
2023-02-21T04:27:30.386Z,40.67
2023-02-21T04:29:57.710Z,45.15
2023-02-21T04:32:24.889Z,44.38
2023-02-21T04:34:51.736Z,43.85
2023-02-21T04:37:18.657Z,46.20
2023-02-21T04:39:46.098Z,44.58
2023-02-21T04:42:15.422Z,41.50
2023-02-21T04:44:46.649Z,43.80
2023-02-21T04:47:15.826Z,39.47
2023-02-21T04:49:42.478Z,39.75
2023-02-21T04:52:09.168Z,43.97
2023-02-21T04:54:35.849Z,42.50
2023-02-21T04:57:02.501Z,45.03
2023-02-21T04:59:29.196Z,42.80
2023-02-21T05:01:55.872Z,45.05
2023-02-21T05:04:22.542Z,44.50
2023-02-21T05:06:49.195Z,43.80
2023-02-21T05:09:15.847Z,46.17
2023-02-21T05:11:42.558Z,47.50
2023-02-21T05:14:09.665Z,45.78
2023-02-21T05:16:36.371Z,48.25
2023-02-21T05:19:03.296Z,45.70
2023-02-21T05:21:33.907Z,44.45
2023-02-21T05:24:00.530Z,48.72
2023-02-21T05:26:32.844Z,50.80
2023-02-21T05:28:59.827Z,47.42
2023-02-21T05:31:27.321Z,46.28
2023-02-21T05:33:54.507Z,46.15
2023-02-21T05:36:21.261Z,46.53
2023-02-21T05:38:50.980Z,42.08
2023-02-21T05:41:18.815Z,49.42
2023-02-21T05:43:46.889Z,48.78
2023-02-21T05:46:23.133Z,45.28
2023-02-21T05:48:50.124Z,50.20
2023-02-21T05:51:17.481Z,45.00
2023-02-21T05:53:44.252Z,44.42
2023-02-21T05:56:11.426Z,47.78
2023-02-21T05:58:38.584Z,44.00
2023-02-21T06:01:05.511Z,49.42
2023-02-21T06:03:33.102Z,40.88
2023-02-21T06:05:59.888Z,42.85
2023-02-21T06:08:26.612Z,46.85
2023-02-21T06:10:53.334Z,44.78
2023-02-21T06:13:19.983Z,41.38
2023-02-21T06:15:46.720Z,40.03
2023-02-21T06:18:15.432Z,42.65
2023-02-21T06:20:42.413Z,37.05
2023-02-21T06:23:09.115Z,39.83
2023-02-21T06:25:35.826Z,35.83
2023-02-21T06:28:02.637Z,33.42
2023-02-21T06:30:29.392Z,36.30
2023-02-21T06:32:56.237Z,37.03
2023-02-21T06:35:22.910Z,29.83
2023-02-21T06:37:49.529Z,31.60
2023-02-21T06:40:16.246Z,33.72
2023-02-21T06:42:42.952Z,30.27
2023-02-21T06:45:09.690Z,28.70
2023-02-21T06:47:36.528Z,29.90
2023-02-21T06:50:03.797Z,31.85
2023-02-21T06:52:31.706Z,32.28
2023-02-21T06:54:59.476Z,26.90
2023-02-21T06:57:26.150Z,27.92
2023-02-21T06:59:52.785Z,29.85
2023-02-21T07:02:20.267Z,27.42
2023-02-21T07:04:47.659Z,32.85
2023-02-21T07:07:14.776Z,28.13
2023-02-21T07:09:41.426Z,29.70
2023-02-21T07:12:08.774Z,29.35
2023-02-21T07:14:35.545Z,31.58
2023-02-21T07:17:02.333Z,37.83
2023-02-21T07:19:29.190Z,31.08
2023-02-21T07:21:55.975Z,30.27
2023-02-21T07:24:22.649Z,32.60
2023-02-21T07:26:49.551Z,35.72
2023-02-21T07:29:17.330Z,40.45
2023-02-21T07:31:44.152Z,35.95
2023-02-21T07:34:12.133Z,37.30
2023-02-21T07:36:40.315Z,38.85
2023-02-21T07:39:07.261Z,42.70
2023-02-21T07:41:33.923Z,42.35
2023-02-21T07:44:00.604Z,40.85
2023-02-21T07:46:28.516Z,49.47
2023-02-21T07:48:55.632Z,48.10
2023-02-21T07:51:22.617Z,46.33
2023-02-21T07:53:49.292Z,58.17
2023-02-21T07:56:15.965Z,55.72
2023-02-21T07:58:42.617Z,50.42
2023-02-21T08:01:09.373Z,57.40
2023-02-21T08:03:37.756Z,51.17
2023-02-21T08:06:04.968Z,53.50
2023-02-21T08:08:31.731Z,60.47
2023-02-21T08:10:58.367Z,52.35
2023-02-21T08:13:24.978Z,49.58
2023-02-21T08:15:51.730Z,54.42
2023-02-21T08:18:24.052Z,50.65
2023-02-21T08:20:55.194Z,46.85
2023-02-21T08:23:22.138Z,53.67
2023-02-21T08:25:49.259Z,47.58
2023-02-21T08:28:16.705Z,47.28
2023-02-21T08:30:43.480Z,55.42
2023-02-21T08:33:10.462Z,47.22
2023-02-21T08:35:37.129Z,50.63
2023-02-21T08:38:04.917Z,52.25
2023-02-21T08:40:31.926Z,46.72
2023-02-21T08:43:00.425Z,51.67
2023-02-21T08:45:28.746Z,41.35
2023-02-21T08:47:56.504Z,41.45
2023-02-21T08:50:25.664Z,48.67
2023-02-21T08:52:52.923Z,51.97
2023-02-21T08:55:20.377Z,44.60
2023-02-21T08:57:52.020Z,41.53
2023-02-21T09:00:23.162Z,45.70
2023-02-21T09:02:52.910Z,46.92
2023-02-21T09:05:24.607Z,49.05
2023-02-21T09:07:55.051Z,47.53
2023-02-21T09:10:22.215Z,49.15
2023-02-21T09:12:48.957Z,46.75
2023-02-21T09:15:16.297Z,44.90
2023-02-21T09:17:43.429Z,49.05
2023-02-21T09:20:11.991Z,41.65
2023-02-21T09:22:38.690Z,45.85
2023-02-21T09:25:07.430Z,38.58
2023-02-21T09:27:36.828Z,39.97
2023-02-21T09:30:18.994Z,40.63
2023-02-21T09:32:45.751Z,41.03
2023-02-21T09:35:13.932Z,46.17
2023-02-21T09:37:41.838Z,35.03
2023-02-21T09:40:44.171Z,39.08
2023-02-21T09:43:19.138Z,37.08
2023-02-21T09:45:46.127Z,32.63
2023-02-21T09:48:16.860Z,34.47
2023-02-21T09:50:48.248Z,32.85
2023-02-21T09:53:20.786Z,35.78
2023-02-21T09:55:50.086Z,34.17
2023-02-21T09:58:19.805Z,33.85
2023-02-21T10:00:47.105Z,33.22
2023-02-21T10:03:49.356Z,30.52
2023-02-21T10:06:19.186Z,38.10
2023-02-21T10:08:57.928Z,33.45
2023-02-21T10:11:36.187Z,28.42
2023-02-21T10:14:09.720Z,32.58
2023-02-21T10:16:47.253Z,29.60
2023-02-21T10:19:21.020Z,32.13
2023-02-21T10:21:49.409Z,32.92
2023-02-21T10:24:20.428Z,28.45
2023-02-21T10:27:12.947Z,30.67
2023-02-21T10:29:55.380Z,28.60
2023-02-21T10:32:24.627Z,25.38
2023-02-21T10:34:54.760Z,26.05
2023-02-21T10:37:47.161Z,28.45
2023-02-21T10:40:35.802Z,28.67
2023-02-21T10:43:08.474Z,23.92
2023-02-21T10:45:41.297Z,28.05
2023-02-21T10:48:10.289Z,30.42
2023-02-21T10:51:28.094Z,25.63
2023-02-21T10:54:14.945Z,24.60
2023-02-21T10:56:41.960Z,25.48
2023-02-21T10:59:09.434Z,26.15
2023-02-21T11:01:44.770Z,23.17
2023-02-21T11:04:20.500Z,24.13
2023-02-21T11:07:11.933Z,27.05
2023-02-21T11:09:44.213Z,26.60
2023-02-21T11:12:19.662Z,24.27
2023-02-21T11:14:52.358Z,23.92
2023-02-21T11:17:21.013Z,26.70
2023-02-21T11:20:10.659Z,28.65
2023-02-21T11:22:39.203Z,28.50
2023-02-21T11:25:18.937Z,27.40
2023-02-21T11:28:18.016Z,24.63
2023-02-21T11:31:05.863Z,23.13
2023-02-21T11:33:37.243Z,27.20
2023-02-21T11:36:19.427Z,24.05
2023-02-21T11:39:01.390Z,22.48
2023-02-21T11:41:35.882Z,26.20
2023-02-21T11:44:02.697Z,22.92
2023-02-21T11:46:48.890Z,24.25
2023-02-21T11:49:37.629Z,22.23
2023-02-21T11:52:12.063Z,21.17
2023-02-21T11:54:39.835Z,17.00
2023-02-21T11:57:11.969Z,18.17
2023-02-21T11:59:59.535Z,17.77
2023-02-21T12:03:04.276Z,15.95
2023-02-21T12:05:57.770Z,15.20
2023-02-21T12:09:01.915Z,17.08
2023-02-21T12:12:25.870Z,10.57
2023-02-21T12:15:05.724Z,13.30
2023-02-21T12:18:10.107Z,13.98
2023-02-21T12:21:21.868Z,12.55
2023-02-21T12:24:00.228Z,10.73
2023-02-21T12:26:46.107Z,11.48
2023-02-21T12:29:27.777Z,10.52
2023-02-21T12:32:22.070Z,11.82
2023-02-21T12:35:24.016Z,13.85
2023-02-21T12:38:06.868Z,12.13
2023-02-21T12:41:10.643Z,11.38
2023-02-21T12:43:46.783Z,9.63
2023-02-21T12:46:25.157Z,10.05
2023-02-21T12:49:20.690Z,13.60
2023-02-21T12:52:25.935Z,11.93
2023-02-21T12:55:07.600Z,10.18
2023-02-21T12:58:02.565Z,10.90
2023-02-21T13:00:38.619Z,10.75
2023-02-21T13:03:30.037Z,13.93
2023-02-21T13:06:03.095Z,12.80
2023-02-21T13:08:41.545Z,10.43
2023-02-21T13:11:18.997Z,10.75
2023-02-21T13:13:45.712Z,9.00
2023-02-21T13:16:14.358Z,12.32
2023-02-21T13:18:53.657Z,10.35
2023-02-21T13:21:27.885Z,16.42
2023-02-21T13:24:02.272Z,12.73
2023-02-21T13:27:00.207Z,15.35
2023-02-21T13:29:36.550Z,15.57
2023-02-21T13:32:17.427Z,16.52
2023-02-21T13:34:54.497Z,13.73
2023-02-21T13:37:27.832Z,11.30
2023-02-21T13:40:01.425Z,11.38
2023-02-21T13:42:30.095Z,11.48
2023-02-21T13:45:24.320Z,10.80
2023-02-21T13:48:00.006Z,10.38
2023-02-21T13:50:32.570Z,12.43
2023-02-21T13:53:18.304Z,10.48
2023-02-21T13:55:59.891Z,10.60
2023-02-21T13:58:39.749Z,11.25
2023-02-21T14:01:17.940Z,9.52
2023-02-21T14:03:45.320Z,11.43
2023-02-21T14:06:12.048Z,11.57
2023-02-21T14:08:48.067Z,12.82
2023-02-21T14:11:23.925Z,10.07
2023-02-21T14:14:02.976Z,10.80
2023-02-21T14:16:34.478Z,11.77
2023-02-21T14:21:41.263Z,10.57
2023-02-21T14:24:10.669Z,11.25
2023-02-21T14:26:41.662Z,13.15
2023-02-21T14:29:08.259Z,12.75
2023-02-21T14:32:02.145Z,11.23
2023-02-21T14:34:47.401Z,10.07
2023-02-21T14:37:35.646Z,13.15
2023-02-21T14:40:11.210Z,8.20
2023-02-21T14:42:43.983Z,9.98
2023-02-21T14:45:10.672Z,10.27
2023-02-21T14:47:40.356Z,10.15
2023-02-21T14:50:54.564Z,10.98
2023-02-21T14:53:52.134Z,9.68
2023-02-21T14:56:56.359Z,11.15
2023-02-21T15:00:00.195Z,8.85
2023-02-21T15:02:30.339Z,12.38
2023-02-21T15:05:08.162Z,12.98
2023-02-21T15:07:47.612Z,11.48
2023-02-21T15:10:40.147Z,10.57
2023-02-21T15:13:07.062Z,13.90
2023-02-21T15:15:42.182Z,10.48
2023-02-21T15:18:11.490Z,10.20
2023-02-21T15:20:40.864Z,10.05
2023-02-21T15:23:12.562Z,9.68
2023-02-21T15:25:39.494Z,9.63
2023-02-21T15:28:18.981Z,11.55
2023-02-21T15:31:05.962Z,9.70
2023-02-21T15:33:35.382Z,12.05
2023-02-21T15:36:18.093Z,18.50
2023-02-21T15:38:44.808Z,11.05
2023-02-21T15:41:31.073Z,12.48
2023-02-21T15:44:07.477Z,9.63
2023-02-21T15:46:48.031Z,9.23
2023-02-21T15:49:20.858Z,10.85
2023-02-21T15:51:49.321Z,12.00
2023-02-21T15:54:17.060Z,11.82
2023-02-21T15:56:44.949Z,14.68
2023-02-21T15:59:24.688Z,11.38
2023-02-21T16:02:07.538Z,12.02
2023-02-21T16:04:39.428Z,12.07
2023-02-21T16:07:14.016Z,11.57
2023-02-21T16:09:44.980Z,10.55
2023-02-21T16:12:11.615Z,15.77
2023-02-21T16:15:00.123Z,12.77
2023-02-21T16:17:38.975Z,12.63
2023-02-21T16:20:13.120Z,12.50
2023-02-21T16:23:06.352Z,13.13
2023-02-21T16:25:28.034Z,13.10
2023-02-21T16:27:57.712Z,11.32
2023-02-21T16:30:35.513Z,13.10
2023-02-21T16:33:05.168Z,13.43
2023-02-21T16:35:32.887Z,15.13
2023-02-21T16:38:00.591Z,16.42
2023-02-21T16:40:30.273Z,18.08
2023-02-21T16:42:58.910Z,16.33
2023-02-21T16:45:25.679Z,20.65
2023-02-21T16:47:59.593Z,18.80
2023-02-21T16:50:35.767Z,24.35
2023-02-21T16:53:03.180Z,16.80
2023-02-21T16:55:30.245Z,16.33
2023-02-21T16:58:02.029Z,21.42
2023-02-21T17:00:30.426Z,26.98
2023-02-21T17:02:57.334Z,24.75
2023-02-21T17:05:26.702Z,19.85
2023-02-21T17:07:55.044Z,19.67
2023-02-21T17:10:22.495Z,21.73
2023-02-21T17:12:49.880Z,21.63
2023-02-21T17:15:16.612Z,18.65
2023-02-21T17:17:48.512Z,21.80
2023-02-21T17:20:20.010Z,25.38
2023-02-21T17:22:48.191Z,27.05
2023-02-21T17:25:16.095Z,26.35
2023-02-21T17:27:42.939Z,26.48
2023-02-21T17:30:10.536Z,25.00
2023-02-21T17:32:37.448Z,25.48
2023-02-21T17:35:04.825Z,21.85
2023-02-21T17:37:31.893Z,24.92
2023-02-21T17:39:58.533Z,17.77
2023-02-21T17:42:25.769Z,19.65
2023-02-21T17:44:53.254Z,17.08
2023-02-21T17:47:21.627Z,20.52
2023-02-21T17:49:49.484Z,17.25
2023-02-21T17:52:16.824Z,18.67
2023-02-21T17:54:44.003Z,18.90
2023-02-21T17:57:11.296Z,24.67
2023-02-21T17:59:38.680Z,29.52
2023-02-21T18:02:08.003Z,26.65
2023-02-21T18:04:34.757Z,21.83
2023-02-21T18:07:01.580Z,20.98
2023-02-21T18:09:28.300Z,20.10
2023-02-21T18:11:56.472Z,19.30
2023-02-21T18:14:25.982Z,22.15
2023-02-21T18:16:56.139Z,21.08
2023-02-21T18:19:24.228Z,21.75
2023-02-21T18:21:51.170Z,20.80
2023-02-21T18:24:22.806Z,20.20
2023-02-21T18:26:50.037Z,21.63
2023-02-21T18:29:16.990Z,20.33
2023-02-21T18:31:43.765Z,19.05
2023-02-21T18:34:10.598Z,19.33
2023-02-21T18:36:40.827Z,20.52
2023-02-21T18:39:07.603Z,20.17
2023-02-21T18:41:34.825Z,21.90
2023-02-21T18:44:02.112Z,18.42
2023-02-21T18:46:28.946Z,25.92
2023-02-21T18:48:55.892Z,30.55
2023-02-21T18:51:22.584Z,36.20
2023-02-21T18:53:50.531Z,38.10
2023-02-21T18:56:19.558Z,36.28
2023-02-21T18:58:47.315Z,37.53
2023-02-21T19:01:19.314Z,37.85
2023-02-21T19:03:46.781Z,36.45
2023-02-21T19:06:17.264Z,35.83
2023-02-21T19:08:46.539Z,40.42
2023-02-21T19:11:15.711Z,34.83
2023-02-21T19:13:47.120Z,37.10
2023-02-21T19:16:14.566Z,41.33
2023-02-21T19:18:41.391Z,42.30
2023-02-21T19:21:12.373Z,41.75
2023-02-21T19:23:40.234Z,46.47
2023-02-21T19:26:07.495Z,41.08
2023-02-21T19:28:34.343Z,45.55
2023-02-21T19:31:01.140Z,48.20
2023-02-21T19:33:27.831Z,45.92
2023-02-21T19:35:54.466Z,48.50
2023-02-21T19:38:21.198Z,48.75
2023-02-21T19:40:47.881Z,53.67
2023-02-21T19:43:15.202Z,56.58
2023-02-21T19:45:43.371Z,48.60
2023-02-21T19:48:10.170Z,46.65
2023-02-21T19:50:37.060Z,48.28
2023-02-21T19:53:04.595Z,44.60
2023-02-21T19:55:31.376Z,39.58
2023-02-21T19:57:58.192Z,44.15
2023-02-21T20:00:27.154Z,43.38
2023-02-21T20:02:54.461Z,46.85
2023-02-21T20:05:22.113Z,46.70
2023-02-21T20:07:49.431Z,48.85
2023-02-21T20:10:19.091Z,51.78
2023-02-21T20:12:45.923Z,51.92
2023-02-21T20:15:12.760Z,47.58
2023-02-21T20:17:40.254Z,50.45
2023-02-21T20:20:10.366Z,50.13
2023-02-21T20:22:38.812Z,48.63
2023-02-21T20:25:07.217Z,57.38
2023-02-21T20:27:34.608Z,55.58
2023-02-21T20:30:01.347Z,55.10
2023-02-21T20:32:28.127Z,52.05
2023-02-21T20:34:56.801Z,57.90
2023-02-21T20:37:26.871Z,55.15
2023-02-21T20:39:53.603Z,51.88
2023-02-21T20:42:22.795Z,50.60
2023-02-21T20:44:49.782Z,47.50
2023-02-21T20:47:17.230Z,58.97
2023-02-21T20:49:45.642Z,60.75
2023-02-21T20:52:13.774Z,63.25
2023-02-21T20:54:40.891Z,55.88
2023-02-21T20:57:08.528Z,55.42
2023-02-21T20:59:38.628Z,53.85
2023-02-21T21:02:06.419Z,56.22
2023-02-21T21:04:35.909Z,58.55
2023-02-21T21:07:08.684Z,58.17
2023-02-21T21:09:37.345Z,52.75
2023-02-21T21:12:08.064Z,56.97
2023-02-21T21:14:39.460Z,55.78
2023-02-21T21:17:07.077Z,58.53
2023-02-21T21:19:34.790Z,54.20
2023-02-21T21:22:03.553Z,57.80
2023-02-21T21:24:31.909Z,52.75
2023-02-21T21:27:06.266Z,57.47
2023-02-21T21:29:42.155Z,51.47
2023-02-21T21:32:10.369Z,62.78
2023-02-21T21:34:41.920Z,55.60
2023-02-21T21:37:08.968Z,55.35
2023-02-21T21:39:37.408Z,60.65
2023-02-21T21:42:08.732Z,58.30
2023-02-21T21:44:38.076Z,63.78
2023-02-21T21:47:05.658Z,61.67
2023-02-21T21:49:34.722Z,60.20
2023-02-21T21:52:04.260Z,56.13
2023-02-21T21:54:35.804Z,57.25
2023-02-21T21:57:04.192Z,53.53
2023-02-21T21:59:32.413Z,61.97
2023-02-21T22:01:59.733Z,59.15
2023-02-21T22:04:29.327Z,53.80
2023-02-21T22:06:56.846Z,56.65
2023-02-21T22:09:25.324Z,57.10
2023-02-21T22:11:52.793Z,58.75
2023-02-21T22:14:22.508Z,56.33
2023-02-21T22:16:50.879Z,61.90
2023-02-21T22:19:19.307Z,61.63
2023-02-21T22:21:46.381Z,61.10
2023-02-21T22:24:20.662Z,59.17
2023-02-21T22:26:47.438Z,54.38
2023-02-21T22:29:16.057Z,60.17
2023-02-21T22:31:44.290Z,60.20
2023-02-21T22:34:23.385Z,64.43
2023-02-21T22:36:55.578Z,57.85
2023-02-21T22:39:23.222Z,64.70
2023-02-21T22:41:50.601Z,59.60
2023-02-21T22:44:18.680Z,61.28
2023-02-21T22:46:48.555Z,63.22
2023-02-21T22:49:16.639Z,54.40
2023-02-21T22:51:43.953Z,66.45
2023-02-21T22:54:14.183Z,56.40
2023-02-21T22:56:50.534Z,59.88
2023-02-21T22:59:24.132Z,59.90
2023-02-21T23:01:50.886Z,56.25
2023-02-21T23:04:25.096Z,61.03
2023-02-21T23:06:57.601Z,60.85
2023-02-21T23:09:26.017Z,65.10
2023-02-21T23:11:55.016Z,58.70
2023-02-21T23:14:22.061Z,57.20
2023-02-21T23:16:49.214Z,60.22
2023-02-21T23:19:16.463Z,61.25
2023-02-21T23:21:51.024Z,64.82
2023-02-21T23:24:19.895Z,57.03
2023-02-21T23:26:47.406Z,58.92
2023-02-21T23:29:26.239Z,64.30
2023-02-21T23:31:57.547Z,61.42
2023-02-21T23:34:39.715Z,60.42
2023-02-21T23:37:07.521Z,63.53
2023-02-21T23:39:34.313Z,60.47
2023-02-21T23:42:01.065Z,67.35
2023-02-21T23:44:27.753Z,66.05
2023-02-21T23:46:54.479Z,64.05
2023-02-21T23:49:24.247Z,60.55
2023-02-21T23:51:53.570Z,75.03
2023-02-21T23:54:21.011Z,66.50
2023-02-21T23:56:48.287Z,68.55
2023-02-21T23:59:16.419Z,70.15
